sensor_id;sensor_type;location;lat;lon;timestamp;temperature;humidity
1880;DHT22;49285;49.002;8.390;2023-01-16T00:00:50;7.40;99.90
1880;DHT22;49285;49.002;8.390;2023-01-16T00:03:15;7.50;99.90
1880;DHT22;49285;49.002;8.390;2023-01-16T00:05:42;7.60;99.90
1880;DHT22;49285;49.002;8.390;2023-01-16T00:08:08;7.60;99.90
1880;DHT22;49285;49.002;8.390;2023-01-16T00:10:34;7.60;99.90
1880;DHT22;49285;49.002;8.390;2023-01-16T00:12:59;7.60;99.90
1880;DHT22;49285;49.002;8.390;2023-01-16T00:15:25;7.60;99.90
1880;DHT22;49285;49.002;8.390;2023-01-16T00:17:50;7.50;99.90
1880;DHT22;49285;49.002;8.390;2023-01-16T00:20:16;7.70;99.90
1880;DHT22;49285;49.002;8.390;2023-01-16T00:22:42;7.70;99.90
1880;DHT22;49285;49.002;8.390;2023-01-16T00:25:08;7.60;99.90
1880;DHT22;49285;49.002;8.390;2023-01-16T00:27:34;7.70;99.90
1880;DHT22;49285;49.002;8.390;2023-01-16T00:29:59;7.70;99.90
1880;DHT22;49285;49.002;8.390;2023-01-16T00:32:25;7.70;99.90
1880;DHT22;49285;49.002;8.390;2023-01-16T00:34:50;7.70;99.90
1880;DHT22;49285;49.002;8.390;2023-01-16T00:37:16;7.70;99.90
1880;DHT22;49285;49.002;8.390;2023-01-16T00:39:42;7.70;99.90
1880;DHT22;49285;49.002;8.390;2023-01-16T00:42:07;7.70;99.90
1880;DHT22;49285;49.002;8.390;2023-01-16T00:44:33;7.70;99.90
1880;DHT22;49285;49.002;8.390;2023-01-16T00:46:59;7.70;99.90
1880;DHT22;49285;49.002;8.390;2023-01-16T00:49:25;7.60;99.90
1880;DHT22;49285;49.002;8.390;2023-01-16T00:51:50;7.50;99.90
1880;DHT22;49285;49.002;8.390;2023-01-16T00:54:16;7.40;99.90
1880;DHT22;49285;49.002;8.390;2023-01-16T00:56:41;7.40;99.90
1880;DHT22;49285;49.002;8.390;2023-01-16T00:59:07;7.40;99.90
1880;DHT22;49285;49.002;8.390;2023-01-16T01:01:33;7.40;99.90
1880;DHT22;49285;49.002;8.390;2023-01-16T01:03:59;7.40;99.90
1880;DHT22;49285;49.002;8.390;2023-01-16T01:06:25;7.40;99.90
1880;DHT22;49285;49.002;8.390;2023-01-16T01:08:50;7.30;99.90
1880;DHT22;49285;49.002;8.390;2023-01-16T01:11:16;7.40;99.90
1880;DHT22;49285;49.002;8.390;2023-01-16T01:13:42;7.40;99.90
1880;DHT22;49285;49.002;8.390;2023-01-16T01:16:09;7.40;99.90
1880;DHT22;49285;49.002;8.390;2023-01-16T01:18:35;7.40;99.90
1880;DHT22;49285;49.002;8.390;2023-01-16T01:21:01;7.50;99.90
1880;DHT22;49285;49.002;8.390;2023-01-16T01:23:26;7.50;99.90
1880;DHT22;49285;49.002;8.390;2023-01-16T01:25:52;7.50;99.90
1880;DHT22;49285;49.002;8.390;2023-01-16T01:28:19;7.50;99.90
1880;DHT22;49285;49.002;8.390;2023-01-16T01:30:44;7.50;99.90
1880;DHT22;49285;49.002;8.390;2023-01-16T01:33:10;7.60;99.90
1880;DHT22;49285;49.002;8.390;2023-01-16T01:35:36;7.60;99.90
1880;DHT22;49285;49.002;8.390;2023-01-16T01:38:03;7.50;99.90
1880;DHT22;49285;49.002;8.390;2023-01-16T01:40:28;7.40;99.90
1880;DHT22;49285;49.002;8.390;2023-01-16T01:42:54;7.50;99.90
1880;DHT22;49285;49.002;8.390;2023-01-16T01:45:27;7.50;99.90
1880;DHT22;49285;49.002;8.390;2023-01-16T01:50:44;7.50;99.90
1880;DHT22;49285;49.002;8.390;2023-01-16T01:55:44;7.60;99.90
1880;DHT22;49285;49.002;8.390;2023-01-16T01:58:14;7.60;99.90
1880;DHT22;49285;49.002;8.390;2023-01-16T02:00:46;7.60;99.90
1880;DHT22;49285;49.002;8.390;2023-01-16T02:03:21;7.50;99.90
1880;DHT22;49285;49.002;8.390;2023-01-16T02:05:52;7.50;99.90
1880;DHT22;49285;49.002;8.390;2023-01-16T02:08:21;7.50;99.90
1880;DHT22;49285;49.002;8.390;2023-01-16T02:10:53;7.50;99.90
1880;DHT22;49285;49.002;8.390;2023-01-16T02:13:21;7.60;99.90
1880;DHT22;49285;49.002;8.390;2023-01-16T02:15:46;7.60;99.90
1880;DHT22;49285;49.002;8.390;2023-01-16T02:18:31;7.50;99.90
1880;DHT22;49285;49.002;8.390;2023-01-16T02:37:00;7.80;99.90
1880;DHT22;49285;49.002;8.390;2023-01-16T02:39:44;7.70;99.90
1880;DHT22;49285;49.002;8.390;2023-01-16T02:42:34;7.80;99.90
1880;DHT22;49285;49.002;8.390;2023-01-16T02:47:39;7.80;99.90
1880;DHT22;49285;49.002;8.390;2023-01-16T02:56:01;7.90;99.90
1880;DHT22;49285;49.002;8.390;2023-01-16T02:58:33;7.90;99.90
1880;DHT22;49285;49.002;8.390;2023-01-16T03:01:00;7.90;99.90
1880;DHT22;49285;49.002;8.390;2023-01-16T03:05:55;7.90;99.90
1880;DHT22;49285;49.002;8.390;2023-01-16T03:08:43;8.00;99.90
1880;DHT22;49285;49.002;8.390;2023-01-16T03:11:24;8.00;99.90
1880;DHT22;49285;49.002;8.390;2023-01-16T03:23:02;8.00;99.90
1880;DHT22;49285;49.002;8.390;2023-01-16T03:25:53;8.00;99.90
1880;DHT22;49285;49.002;8.390;2023-01-16T03:28:41;8.00;99.90
1880;DHT22;49285;49.002;8.390;2023-01-16T03:34:11;8.00;99.90
1880;DHT22;49285;49.002;8.390;2023-01-16T03:36:46;8.00;99.90
1880;DHT22;49285;49.002;8.390;2023-01-16T03:39:16;8.00;99.90
1880;DHT22;49285;49.002;8.390;2023-01-16T03:41:43;8.00;99.90
1880;DHT22;49285;49.002;8.390;2023-01-16T03:44:18;8.00;99.90
1880;DHT22;49285;49.002;8.390;2023-01-16T03:46:50;7.90;99.90
1880;DHT22;49285;49.002;8.390;2023-01-16T03:49:20;8.10;99.90
1880;DHT22;49285;49.002;8.390;2023-01-16T03:51:55;8.10;99.90
1880;DHT22;49285;49.002;8.390;2023-01-16T03:59:38;8.10;99.90
1880;DHT22;49285;49.002;8.390;2023-01-16T04:02:22;8.20;99.90
1880;DHT22;49285;49.002;8.390;2023-01-16T04:07:30;8.20;99.90
1880;DHT22;49285;49.002;8.390;2023-01-16T04:10:04;8.10;99.90
1880;DHT22;49285;49.002;8.390;2023-01-16T04:12:36;8.10;99.90
1880;DHT22;49285;49.002;8.390;2023-01-16T04:15:06;8.20;99.90
1880;DHT22;49285;49.002;8.390;2023-01-16T04:17:34;8.20;99.90
1880;DHT22;49285;49.002;8.390;2023-01-16T04:20:00;8.30;99.90
1880;DHT22;49285;49.002;8.390;2023-01-16T04:22:27;8.40;99.90
1880;DHT22;49285;49.002;8.390;2023-01-16T04:24:56;8.40;99.90
1880;DHT22;49285;49.002;8.390;2023-01-16T04:27:22;8.40;99.90
1880;DHT22;49285;49.002;8.390;2023-01-16T04:29:48;8.40;99.90
1880;DHT22;49285;49.002;8.390;2023-01-16T04:32:14;8.40;99.90
1880;DHT22;49285;49.002;8.390;2023-01-16T04:34:40;8.30;99.90
1880;DHT22;49285;49.002;8.390;2023-01-16T04:37:05;8.30;99.90
1880;DHT22;49285;49.002;8.390;2023-01-16T04:39:32;8.30;99.90
1880;DHT22;49285;49.002;8.390;2023-01-16T04:41:58;8.30;99.90
1880;DHT22;49285;49.002;8.390;2023-01-16T04:44:24;8.30;99.90
1880;DHT22;49285;49.002;8.390;2023-01-16T04:46:49;8.40;99.90
1880;DHT22;49285;49.002;8.390;2023-01-16T04:49:15;8.40;99.90
1880;DHT22;49285;49.002;8.390;2023-01-16T04:51:41;8.40;99.90
1880;DHT22;49285;49.002;8.390;2023-01-16T04:54:09;8.50;99.90
1880;DHT22;49285;49.002;8.390;2023-01-16T04:56:39;8.50;99.90
1880;DHT22;49285;49.002;8.390;2023-01-16T04:59:05;8.50;99.90
1880;DHT22;49285;49.002;8.390;2023-01-16T05:01:30;8.50;99.90
1880;DHT22;49285;49.002;8.390;2023-01-16T05:04:01;8.60;99.90
1880;DHT22;49285;49.002;8.390;2023-01-16T05:06:26;8.60;99.90
1880;DHT22;49285;49.002;8.390;2023-01-16T05:08:52;8.60;99.90
1880;DHT22;49285;49.002;8.390;2023-01-16T05:11:18;8.60;99.90
1880;DHT22;49285;49.002;8.390;2023-01-16T05:13:43;8.60;99.90
1880;DHT22;49285;49.002;8.390;2023-01-16T05:16:09;8.60;99.90
1880;DHT22;49285;49.002;8.390;2023-01-16T05:18:35;8.50;99.90
1880;DHT22;49285;49.002;8.390;2023-01-16T05:21:00;8.50;99.90
1880;DHT22;49285;49.002;8.390;2023-01-16T05:23:27;8.50;99.90
1880;DHT22;49285;49.002;8.390;2023-01-16T05:25:52;8.50;99.90
1880;DHT22;49285;49.002;8.390;2023-01-16T05:28:19;8.50;99.90
1880;DHT22;49285;49.002;8.390;2023-01-16T05:30:47;8.50;99.90
1880;DHT22;49285;49.002;8.390;2023-01-16T05:33:13;8.40;99.90
1880;DHT22;49285;49.002;8.390;2023-01-16T05:35:39;8.40;99.90
1880;DHT22;49285;49.002;8.390;2023-01-16T05:38:05;8.40;99.90
1880;DHT22;49285;49.002;8.390;2023-01-16T05:40:30;8.40;99.90
1880;DHT22;49285;49.002;8.390;2023-01-16T05:42:56;8.40;99.90
1880;DHT22;49285;49.002;8.390;2023-01-16T05:45:22;8.40;99.90
1880;DHT22;49285;49.002;8.390;2023-01-16T05:47:47;8.30;99.90
1880;DHT22;49285;49.002;8.390;2023-01-16T05:50:13;8.30;99.90
1880;DHT22;49285;49.002;8.390;2023-01-16T05:52:39;8.30;99.90
1880;DHT22;49285;49.002;8.390;2023-01-16T05:55:05;8.30;99.90
1880;DHT22;49285;49.002;8.390;2023-01-16T05:57:30;8.20;99.90
1880;DHT22;49285;49.002;8.390;2023-01-16T05:59:56;8.20;99.90
1880;DHT22;49285;49.002;8.390;2023-01-16T06:02:22;8.20;99.90
1880;DHT22;49285;49.002;8.390;2023-01-16T06:04:48;8.00;99.90
1880;DHT22;49285;49.002;8.390;2023-01-16T06:07:14;7.90;99.90
1880;DHT22;49285;49.002;8.390;2023-01-16T06:09:40;7.90;99.90
1880;DHT22;49285;49.002;8.390;2023-01-16T06:12:06;7.80;99.90
1880;DHT22;49285;49.002;8.390;2023-01-16T06:14:35;7.70;99.90
1880;DHT22;49285;49.002;8.390;2023-01-16T06:17:01;7.70;99.90
1880;DHT22;49285;49.002;8.390;2023-01-16T06:19:27;7.70;99.90
1880;DHT22;49285;49.002;8.390;2023-01-16T06:21:52;7.70;99.90
1880;DHT22;49285;49.002;8.390;2023-01-16T06:24:18;7.70;99.90
1880;DHT22;49285;49.002;8.390;2023-01-16T06:26:43;7.70;99.90
1880;DHT22;49285;49.002;8.390;2023-01-16T06:29:09;7.60;99.90
1880;DHT22;49285;49.002;8.390;2023-01-16T06:31:35;7.60;99.90
1880;DHT22;49285;49.002;8.390;2023-01-16T06:34:01;7.50;99.90
1880;DHT22;49285;49.002;8.390;2023-01-16T06:36:27;7.50;99.90
1880;DHT22;49285;49.002;8.390;2023-01-16T06:38:53;7.40;99.90
1880;DHT22;49285;49.002;8.390;2023-01-16T06:41:18;7.50;99.90
1880;DHT22;49285;49.002;8.390;2023-01-16T06:43:44;7.40;99.90
1880;DHT22;49285;49.002;8.390;2023-01-16T06:46:10;7.40;99.90
1880;DHT22;49285;49.002;8.390;2023-01-16T06:48:35;7.40;99.90
1880;DHT22;49285;49.002;8.390;2023-01-16T06:51:01;7.40;99.90
1880;DHT22;49285;49.002;8.390;2023-01-16T06:53:27;7.40;99.90
1880;DHT22;49285;49.002;8.390;2023-01-16T06:55:52;7.40;99.90
1880;DHT22;49285;49.002;8.390;2023-01-16T06:58:18;7.40;99.90
1880;DHT22;49285;49.002;8.390;2023-01-16T07:00:44;7.40;99.90
1880;DHT22;49285;49.002;8.390;2023-01-16T07:03:10;7.40;99.90
1880;DHT22;49285;49.002;8.390;2023-01-16T07:05:36;7.40;99.90
1880;DHT22;49285;49.002;8.390;2023-01-16T07:08:02;7.40;99.90
1880;DHT22;49285;49.002;8.390;2023-01-16T07:10:28;7.30;99.90
1880;DHT22;49285;49.002;8.390;2023-01-16T07:12:54;7.30;99.90
1880;DHT22;49285;49.002;8.390;2023-01-16T07:15:20;7.40;99.90
1880;DHT22;49285;49.002;8.390;2023-01-16T07:18:06;7.40;99.90
1880;DHT22;49285;49.002;8.390;2023-01-16T07:20:54;7.40;99.90
1880;DHT22;49285;49.002;8.390;2023-01-16T07:23:44;7.50;99.90
1880;DHT22;49285;49.002;8.390;2023-01-16T07:26:12;7.50;99.90
1880;DHT22;49285;49.002;8.390;2023-01-16T07:28:40;7.50;99.90
1880;DHT22;49285;49.002;8.390;2023-01-16T07:31:06;7.40;99.90
1880;DHT22;49285;49.002;8.390;2023-01-16T07:33:33;7.50;99.90
1880;DHT22;49285;49.002;8.390;2023-01-16T07:35:59;7.50;99.90
1880;DHT22;49285;49.002;8.390;2023-01-16T07:38:24;7.50;99.90
1880;DHT22;49285;49.002;8.390;2023-01-16T07:40:50;7.40;99.90
1880;DHT22;49285;49.002;8.390;2023-01-16T07:43:15;7.40;99.90
1880;DHT22;49285;49.002;8.390;2023-01-16T07:45:41;7.40;99.90
1880;DHT22;49285;49.002;8.390;2023-01-16T07:48:07;7.40;99.90
1880;DHT22;49285;49.002;8.390;2023-01-16T07:50:33;7.40;99.90
1880;DHT22;49285;49.002;8.390;2023-01-16T07:52:58;7.30;99.90
1880;DHT22;49285;49.002;8.390;2023-01-16T07:55:24;7.40;99.90
1880;DHT22;49285;49.002;8.390;2023-01-16T07:57:50;7.40;99.90
1880;DHT22;49285;49.002;8.390;2023-01-16T08:00:16;7.50;99.90
1880;DHT22;49285;49.002;8.390;2023-01-16T08:02:41;7.50;99.90
1880;DHT22;49285;49.002;8.390;2023-01-16T08:05:08;7.60;99.90
1880;DHT22;49285;49.002;8.390;2023-01-16T08:07:34;7.60;99.90
1880;DHT22;49285;49.002;8.390;2023-01-16T08:10:00;7.70;99.90
1880;DHT22;49285;49.002;8.390;2023-01-16T08:12:26;7.70;99.90
1880;DHT22;49285;49.002;8.390;2023-01-16T08:14:51;7.80;99.90
1880;DHT22;49285;49.002;8.390;2023-01-16T08:17:17;7.80;99.90
1880;DHT22;49285;49.002;8.390;2023-01-16T08:19:42;7.80;99.90
1880;DHT22;49285;49.002;8.390;2023-01-16T08:22:08;7.90;99.90
1880;DHT22;49285;49.002;8.390;2023-01-16T08:24:33;7.90;99.90
1880;DHT22;49285;49.002;8.390;2023-01-16T08:26:59;7.90;99.90
1880;DHT22;49285;49.002;8.390;2023-01-16T08:29:25;8.00;99.90
1880;DHT22;49285;49.002;8.390;2023-01-16T08:31:51;8.00;99.90
1880;DHT22;49285;49.002;8.390;2023-01-16T08:34:17;7.90;99.90
1880;DHT22;49285;49.002;8.390;2023-01-16T08:36:42;8.00;99.90
1880;DHT22;49285;49.002;8.390;2023-01-16T08:39:11;7.90;99.90
1880;DHT22;49285;49.002;8.390;2023-01-16T08:41:38;7.80;99.90
1880;DHT22;49285;49.002;8.390;2023-01-16T08:44:22;7.90;99.90
1880;DHT22;49285;49.002;8.390;2023-01-16T08:47:18;8.00;99.90
1880;DHT22;49285;49.002;8.390;2023-01-16T08:50:04;8.00;99.90
1880;DHT22;49285;49.002;8.390;2023-01-16T08:52:48;8.00;99.90
1880;DHT22;49285;49.002;8.390;2023-01-16T08:55:14;8.10;99.90
1880;DHT22;49285;49.002;8.390;2023-01-16T08:57:39;8.20;99.90
1880;DHT22;49285;49.002;8.390;2023-01-16T09:00:07;8.30;99.90
1880;DHT22;49285;49.002;8.390;2023-01-16T09:02:33;8.30;99.90
1880;DHT22;49285;49.002;8.390;2023-01-16T09:05:01;8.40;99.90
1880;DHT22;49285;49.002;8.390;2023-01-16T09:07:27;8.50;99.90
1880;DHT22;49285;49.002;8.390;2023-01-16T09:09:54;8.60;99.90
1880;DHT22;49285;49.002;8.390;2023-01-16T09:12:20;8.70;99.90
1880;DHT22;49285;49.002;8.390;2023-01-16T09:15:05;8.70;99.90
1880;DHT22;49285;49.002;8.390;2023-01-16T09:17:30;8.80;99.90
1880;DHT22;49285;49.002;8.390;2023-01-16T09:19:56;8.80;99.90
1880;DHT22;49285;49.002;8.390;2023-01-16T09:22:22;8.90;99.90
1880;DHT22;49285;49.002;8.390;2023-01-16T09:24:48;8.90;99.90
1880;DHT22;49285;49.002;8.390;2023-01-16T09:27:13;8.90;99.90
1880;DHT22;49285;49.002;8.390;2023-01-16T09:29:40;8.90;99.90
1880;DHT22;49285;49.002;8.390;2023-01-16T09:32:07;9.00;99.90
1880;DHT22;49285;49.002;8.390;2023-01-16T09:34:37;9.00;99.90
1880;DHT22;49285;49.002;8.390;2023-01-16T09:37:04;8.90;99.90
1880;DHT22;49285;49.002;8.390;2023-01-16T09:39:30;9.10;99.90
1880;DHT22;49285;49.002;8.390;2023-01-16T09:45:31;9.00;99.90
1880;DHT22;49285;49.002;8.390;2023-01-16T09:48:28;9.10;99.90
1880;DHT22;49285;49.002;8.390;2023-01-16T09:50:59;9.20;99.90
1880;DHT22;49285;49.002;8.390;2023-01-16T09:56:43;9.10;99.90
1880;DHT22;49285;49.002;8.390;2023-01-16T09:59:35;9.20;99.90
1880;DHT22;49285;49.002;8.390;2023-01-16T10:04:43;9.20;99.90
1880;DHT22;49285;49.002;8.390;2023-01-16T10:12:44;9.30;99.90
1880;DHT22;49285;49.002;8.390;2023-01-16T10:15:34;9.30;99.90
1880;DHT22;49285;49.002;8.390;2023-01-16T10:18:27;9.40;99.90
1880;DHT22;49285;49.002;8.390;2023-01-16T10:21:17;9.20;99.90
1880;DHT22;49285;49.002;8.390;2023-01-16T10:26:30;9.20;99.90
1880;DHT22;49285;49.002;8.390;2023-01-16T10:29:33;9.20;99.90
1880;DHT22;49285;49.002;8.390;2023-01-16T10:37:32;9.40;99.90
1880;DHT22;49285;49.002;8.390;2023-01-16T10:39:59;9.50;99.90
1880;DHT22;49285;49.002;8.390;2023-01-16T10:42:32;9.50;99.90
1880;DHT22;49285;49.002;8.390;2023-01-16T10:45:27;9.60;99.90
1880;DHT22;49285;49.002;8.390;2023-01-16T10:48:14;9.60;99.90
1880;DHT22;49285;49.002;8.390;2023-01-16T10:50:59;9.60;99.90
1880;DHT22;49285;49.002;8.390;2023-01-16T10:53:26;9.40;99.90
1880;DHT22;49285;49.002;8.390;2023-01-16T10:55:52;9.40;99.90
1880;DHT22;49285;49.002;8.390;2023-01-16T10:58:28;9.40;99.90
1880;DHT22;49285;49.002;8.390;2023-01-16T11:06:29;9.20;99.90
1880;DHT22;49285;49.002;8.390;2023-01-16T11:09:02;9.30;99.90
1880;DHT22;49285;49.002;8.390;2023-01-16T11:11:30;9.30;99.90
1880;DHT22;49285;49.002;8.390;2023-01-16T11:14:25;9.40;99.90
1880;DHT22;49285;49.002;8.390;2023-01-16T11:17:37;9.50;99.90
1880;DHT22;49285;49.002;8.390;2023-01-16T11:20:28;9.70;99.90
1880;DHT22;49285;49.002;8.390;2023-01-16T11:22:59;9.80;99.90
1880;DHT22;49285;49.002;8.390;2023-01-16T11:25:28;9.80;99.90
1880;DHT22;49285;49.002;8.390;2023-01-16T11:27:58;9.80;99.90
1880;DHT22;49285;49.002;8.390;2023-01-16T11:30:30;9.70;99.90
1880;DHT22;49285;49.002;8.390;2023-01-16T11:32:57;9.90;99.90
1880;DHT22;49285;49.002;8.390;2023-01-16T11:35:34;9.90;99.90
1880;DHT22;49285;49.002;8.390;2023-01-16T11:38:01;9.90;99.90
1880;DHT22;49285;49.002;8.390;2023-01-16T11:40:35;9.90;99.90
1880;DHT22;49285;49.002;8.390;2023-01-16T11:43:08;10.00;99.90
1880;DHT22;49285;49.002;8.390;2023-01-16T11:45:57;10.10;99.90
1880;DHT22;49285;49.002;8.390;2023-01-16T11:48:52;10.20;99.90
1880;DHT22;49285;49.002;8.390;2023-01-16T11:51:20;10.20;99.90
1880;DHT22;49285;49.002;8.390;2023-01-16T11:53:49;10.20;99.90
1880;DHT22;49285;49.002;8.390;2023-01-16T12:05:07;10.00;99.90
1880;DHT22;49285;49.002;8.390;2023-01-16T12:13:08;9.80;99.90
1880;DHT22;49285;49.002;8.390;2023-01-16T12:16:29;9.90;99.90
1880;DHT22;49285;49.002;8.390;2023-01-16T12:24:47;10.20;99.90
1880;DHT22;49285;49.002;8.390;2023-01-16T12:27:39;10.20;99.90
1880;DHT22;49285;49.002;8.390;2023-01-16T12:31:03;10.30;99.90
1880;DHT22;49285;49.002;8.390;2023-01-16T12:36:28;10.50;99.90
1880;DHT22;49285;49.002;8.390;2023-01-16T12:39:22;10.70;99.90
1880;DHT22;49285;49.002;8.390;2023-01-16T12:44:57;10.80;99.90
1880;DHT22;49285;49.002;8.390;2023-01-16T12:47:38;10.50;99.90
1880;DHT22;49285;49.002;8.390;2023-01-16T12:55:45;10.90;99.90
1880;DHT22;49285;49.002;8.390;2023-01-16T12:58:25;10.80;99.90
1880;DHT22;49285;49.002;8.390;2023-01-16T13:01:16;10.70;99.90
1880;DHT22;49285;49.002;8.390;2023-01-16T13:03:55;10.70;99.90
1880;DHT22;49285;49.002;8.390;2023-01-16T13:09:41;10.60;99.90
1880;DHT22;49285;49.002;8.390;2023-01-16T13:12:25;10.60;99.90
1880;DHT22;49285;49.002;8.390;2023-01-16T13:15:21;10.50;99.90
1880;DHT22;49285;49.002;8.390;2023-01-16T13:17:56;10.40;99.90
1880;DHT22;49285;49.002;8.390;2023-01-16T13:20:25;10.20;99.90
1880;DHT22;49285;49.002;8.390;2023-01-16T13:23:11;10.20;99.90
1880;DHT22;49285;49.002;8.390;2023-01-16T13:25:44;10.20;99.90
1880;DHT22;49285;49.002;8.390;2023-01-16T13:30:36;10.20;99.90
1880;DHT22;49285;49.002;8.390;2023-01-16T13:33:07;10.20;99.90
1880;DHT22;49285;49.002;8.390;2023-01-16T13:35:58;10.10;99.90
1880;DHT22;49285;49.002;8.390;2023-01-16T13:41:35;10.20;99.90
1880;DHT22;49285;49.002;8.390;2023-01-16T13:47:06;10.30;99.90
1880;DHT22;49285;49.002;8.390;2023-01-16T13:49:33;10.20;99.90
1880;DHT22;49285;49.002;8.390;2023-01-16T13:52:01;10.10;99.90
1880;DHT22;49285;49.002;8.390;2023-01-16T13:54:37;10.10;99.90
1880;DHT22;49285;49.002;8.390;2023-01-16T14:00:09;10.20;99.90
1880;DHT22;49285;49.002;8.390;2023-01-16T14:07:50;10.20;99.90
1880;DHT22;49285;49.002;8.390;2023-01-16T14:13:37;10.10;99.90
1880;DHT22;49285;49.002;8.390;2023-01-16T14:16:30;10.20;99.90
1880;DHT22;49285;49.002;8.390;2023-01-16T14:19:02;10.10;99.90
1880;DHT22;49285;49.002;8.390;2023-01-16T14:21:45;10.10;99.90
1880;DHT22;49285;49.002;8.390;2023-01-16T14:24:39;10.10;99.90
1880;DHT22;49285;49.002;8.390;2023-01-16T14:27:11;10.10;99.90
1880;DHT22;49285;49.002;8.390;2023-01-16T14:29:54;10.20;99.90
1880;DHT22;49285;49.002;8.390;2023-01-16T14:32:26;10.00;99.90
1880;DHT22;49285;49.002;8.390;2023-01-16T14:37:39;10.10;99.90
1880;DHT22;49285;49.002;8.390;2023-01-16T14:42:37;10.00;99.90
1880;DHT22;49285;49.002;8.390;2023-01-16T14:45:29;10.00;99.90
1880;DHT22;49285;49.002;8.390;2023-01-16T14:54:16;9.60;99.90
1880;DHT22;49285;49.002;8.390;2023-01-16T14:57:16;9.50;99.90
1880;DHT22;49285;49.002;8.390;2023-01-16T14:59:48;9.10;99.90
1880;DHT22;49285;49.002;8.390;2023-01-16T15:02:19;8.80;99.90
1880;DHT22;49285;49.002;8.390;2023-01-16T15:04:55;8.80;99.90
1880;DHT22;49285;49.002;8.390;2023-01-16T15:07:46;8.60;99.90
1880;DHT22;49285;49.002;8.390;2023-01-16T15:10:36;8.50;99.90
1880;DHT22;49285;49.002;8.390;2023-01-16T15:18:23;8.20;99.90
1880;DHT22;49285;49.002;8.390;2023-01-16T15:21:21;8.20;99.90
1880;DHT22;49285;49.002;8.390;2023-01-16T15:24:07;8.20;99.90
1880;DHT22;49285;49.002;8.390;2023-01-16T15:26:54;8.20;99.90
1880;DHT22;49285;49.002;8.390;2023-01-16T15:29:46;8.20;99.90
1880;DHT22;49285;49.002;8.390;2023-01-16T15:32:15;8.20;99.90
1880;DHT22;49285;49.002;8.390;2023-01-16T15:34:46;8.20;99.90
1880;DHT22;49285;49.002;8.390;2023-01-16T15:37:21;8.20;99.90
1880;DHT22;49285;49.002;8.390;2023-01-16T15:39:47;8.10;99.90
1880;DHT22;49285;49.002;8.390;2023-01-16T15:42:27;8.20;99.90
1880;DHT22;49285;49.002;8.390;2023-01-16T15:45:24;8.10;99.90
1880;DHT22;49285;49.002;8.390;2023-01-16T15:51:06;8.00;99.90
1880;DHT22;49285;49.002;8.390;2023-01-16T15:53:42;7.80;99.90
1880;DHT22;49285;49.002;8.390;2023-01-16T15:56:51;7.80;99.90
1880;DHT22;49285;49.002;8.390;2023-01-16T15:59:48;7.80;99.90
1880;DHT22;49285;49.002;8.390;2023-01-16T16:02:23;7.80;99.90
1880;DHT22;49285;49.002;8.390;2023-01-16T16:04:55;7.80;99.90
1880;DHT22;49285;49.002;8.390;2023-01-16T16:07:24;7.80;99.90
1880;DHT22;49285;49.002;8.390;2023-01-16T16:09:56;7.70;99.90
1880;DHT22;49285;49.002;8.390;2023-01-16T16:12:23;7.70;99.90
1880;DHT22;49285;49.002;8.390;2023-01-16T16:14:49;7.60;99.90
1880;DHT22;49285;49.002;8.390;2023-01-16T16:17:59;7.60;99.90
1880;DHT22;49285;49.002;8.390;2023-01-16T16:20:36;7.40;99.90
1880;DHT22;49285;49.002;8.390;2023-01-16T16:31:31;7.40;99.90
1880;DHT22;49285;49.002;8.390;2023-01-16T16:34:17;7.40;99.90
1880;DHT22;49285;49.002;8.390;2023-01-16T16:36:47;7.30;99.90
1880;DHT22;49285;49.002;8.390;2023-01-16T16:41:56;7.30;99.90
1880;DHT22;49285;49.002;8.390;2023-01-16T16:44:45;7.20;99.90
1880;DHT22;49285;49.002;8.390;2023-01-16T16:47:31;7.10;99.90
1880;DHT22;49285;49.002;8.390;2023-01-16T16:49:58;7.00;99.90
1880;DHT22;49285;49.002;8.390;2023-01-16T16:55:00;7.20;99.90
1880;DHT22;49285;49.002;8.390;2023-01-16T16:57:30;7.10;99.90
1880;DHT22;49285;49.002;8.390;2023-01-16T16:59:57;7.00;99.90
1880;DHT22;49285;49.002;8.390;2023-01-16T17:02:23;7.00;99.90
1880;DHT22;49285;49.002;8.390;2023-01-16T17:04:49;7.00;99.90
1880;DHT22;49285;49.002;8.390;2023-01-16T17:07:14;6.90;99.90
1880;DHT22;49285;49.002;8.390;2023-01-16T17:09:40;6.80;99.90
1880;DHT22;49285;49.002;8.390;2023-01-16T17:12:16;6.80;99.90
1880;DHT22;49285;49.002;8.390;2023-01-16T17:14:42;6.80;99.90
1880;DHT22;49285;49.002;8.390;2023-01-16T17:17:14;6.80;99.90
1880;DHT22;49285;49.002;8.390;2023-01-16T17:19:40;6.80;99.90
1880;DHT22;49285;49.002;8.390;2023-01-16T17:22:06;6.80;99.90
1880;DHT22;49285;49.002;8.390;2023-01-16T17:24:32;6.70;99.90
1880;DHT22;49285;49.002;8.390;2023-01-16T17:26:57;6.70;99.90
1880;DHT22;49285;49.002;8.390;2023-01-16T17:29:25;6.70;99.90
1880;DHT22;49285;49.002;8.390;2023-01-16T17:31:50;6.60;99.90
1880;DHT22;49285;49.002;8.390;2023-01-16T17:34:18;6.60;99.90
1880;DHT22;49285;49.002;8.390;2023-01-16T17:36:45;6.60;99.90
1880;DHT22;49285;49.002;8.390;2023-01-16T17:39:17;6.60;99.90
1880;DHT22;49285;49.002;8.390;2023-01-16T17:41:43;6.50;99.90
1880;DHT22;49285;49.002;8.390;2023-01-16T17:44:15;6.30;99.90
1880;DHT22;49285;49.002;8.390;2023-01-16T17:46:59;6.20;99.90
1880;DHT22;49285;49.002;8.390;2023-01-16T17:49:24;6.10;99.90
1880;DHT22;49285;49.002;8.390;2023-01-16T17:51:50;6.10;99.90
1880;DHT22;49285;49.002;8.390;2023-01-16T17:54:16;6.10;99.90
1880;DHT22;49285;49.002;8.390;2023-01-16T17:57:01;6.20;99.90
1880;DHT22;49285;49.002;8.390;2023-01-16T17:59:27;6.20;99.90
1880;DHT22;49285;49.002;8.390;2023-01-16T18:01:52;6.20;99.90
1880;DHT22;49285;49.002;8.390;2023-01-16T18:04:19;6.20;99.90
1880;DHT22;49285;49.002;8.390;2023-01-16T18:06:45;6.30;99.90
1880;DHT22;49285;49.002;8.390;2023-01-16T18:09:12;6.20;99.90
1880;DHT22;49285;49.002;8.390;2023-01-16T18:11:41;6.20;99.90
1880;DHT22;49285;49.002;8.390;2023-01-16T18:14:27;6.20;99.90
1880;DHT22;49285;49.002;8.390;2023-01-16T18:17:13;6.20;99.90
1880;DHT22;49285;49.002;8.390;2023-01-16T18:19:56;6.20;99.90
1880;DHT22;49285;49.002;8.390;2023-01-16T18:22:26;6.20;99.90
1880;DHT22;49285;49.002;8.390;2023-01-16T18:24:53;6.10;99.90
1880;DHT22;49285;49.002;8.390;2023-01-16T18:27:20;6.20;99.90
1880;DHT22;49285;49.002;8.390;2023-01-16T18:29:46;6.10;99.90
1880;DHT22;49285;49.002;8.390;2023-01-16T18:32:13;6.10;99.90
1880;DHT22;49285;49.002;8.390;2023-01-16T18:37:39;6.10;99.90
1880;DHT22;49285;49.002;8.390;2023-01-16T18:40:09;6.10;99.90
1880;DHT22;49285;49.002;8.390;2023-01-16T18:42:54;6.00;99.90
1880;DHT22;49285;49.002;8.390;2023-01-16T18:45:38;6.00;99.90
1880;DHT22;49285;49.002;8.390;2023-01-16T18:48:22;6.00;99.90
1880;DHT22;49285;49.002;8.390;2023-01-16T18:51:12;6.00;99.90
1880;DHT22;49285;49.002;8.390;2023-01-16T18:53:58;6.00;99.90
1880;DHT22;49285;49.002;8.390;2023-01-16T18:56:47;5.90;99.90
1880;DHT22;49285;49.002;8.390;2023-01-16T18:59:33;5.90;99.90
1880;DHT22;49285;49.002;8.390;2023-01-16T19:04:45;6.00;99.90
1880;DHT22;49285;49.002;8.390;2023-01-16T19:07:17;6.00;99.90
1880;DHT22;49285;49.002;8.390;2023-01-16T19:09:47;6.00;99.90
1880;DHT22;49285;49.002;8.390;2023-01-16T19:12:14;6.00;99.90
1880;DHT22;49285;49.002;8.390;2023-01-16T19:14:42;6.00;99.90
1880;DHT22;49285;49.002;8.390;2023-01-16T19:17:08;6.00;99.90
1880;DHT22;49285;49.002;8.390;2023-01-16T19:19:34;6.00;99.90
1880;DHT22;49285;49.002;8.390;2023-01-16T19:22:00;6.00;99.90
1880;DHT22;49285;49.002;8.390;2023-01-16T19:24:26;5.90;99.90